Tuesday, May 22, 2018, 1:55 AM EDT
Back to Local

KGED, Georgetown Sussex Co Airport

Location: Georgetown, DE, United States Lat: 38.683
Local Time: 1:55 AM EDT ( 5:55 GMT) Lon: -75.367
Time Zone: US/Eastern Elev: 52 ft

Show me the last for .
Show Decoded

2018-05-22 00:54 METAR KGED 220454Z AUTO 00000KT 10SM CLR 16/14 A3016 RMK AO2 SLP214 T01560139
                 402390156 =
2018-05-21 23:54 METAR KGED 220354Z AUTO 00000KT 10SM CLR 16/13 A3017 RMK AO2 SLP217 T01560133 =
2018-05-21 22:54 METAR KGED 220254Z AUTO 00000KT 10SM CLR 16/14 A3018 RMK AO2 SLP220 T01610139
                 51003 =
2018-05-21 21:54 METAR KGED 220154Z AUTO 00000KT 10SM CLR 17/13 A3018 RMK AO2 SLP218 T01670128 =
2018-05-21 20:54 METAR KGED 220054Z AUTO 15003KT 10SM CLR 18/13 A3018 RMK AO2 SLP219 T01780128 =
2018-05-21 19:54 METAR KGED 212354Z AUTO 13005KT 10SM CLR 19/12 A3017 RMK AO2 SLP217 T01890122
                 10228 20189 53002 =
2018-05-21 18:54 METAR KGED 212254Z AUTO 12008KT 10SM CLR 21/11 A3016 RMK AO2 SLP213 T02110111 =
2018-05-21 17:54 METAR KGED 212154Z AUTO 12007KT 10SM CLR 21/09 A3017 RMK AO2 SLP216 T02110089 =
2018-05-21 16:54 METAR KGED 212054Z AUTO 11007KT 10SM CLR 22/11 A3017 RMK AO2 SLP215 T02170111
                 56008 =
2018-05-21 15:54 METAR KGED 211954Z AUTO 14008KT 10SM CLR 22/12 A3017 RMK AO2 SLP217 T02170117 =
2018-05-21 14:54 METAR KGED 211854Z AUTO 12011G16KT 10SM CLR 22/13 A3018 RMK AO2 SLP220 T02220128
                 =
2018-05-21 13:54 METAR KGED 211754Z AUTO 11010KT 10SM CLR 23/14 A3019 RMK AO2 SLP224 T02280139
                 10239 20200 58004 =
2018-05-21 12:54 METAR KGED 211654Z AUTO VRB05KT 10SM FEW044 24/14 A3021 RMK AO2 SLP228 T02390139
                 =
2018-05-21 11:54 METAR KGED 211554Z AUTO 05005G16KT 10SM CLR 23/13 A3021 RMK AO2 SLP228 T02330133
                 =
2018-05-21 10:54 METAR KGED 211454Z AUTO 06007KT 10SM CLR 23/13 A3021 RMK AO2 SLP228 T02280133
                 53008 =
2018-05-21 09:54 METAR KGED 211354Z AUTO 04010KT 10SM CLR 22/13 A3020 RMK AO2 SLP224 T02220128 =
2018-05-21 08:54 METAR KGED 211254Z AUTO 05010G17KT 10SM CLR 21/13 A3019 RMK AO2 SLP221 T02110133
                 =
2018-05-21 07:54 METAR KGED 211154Z AUTO 04010KT 10SM CLR 20/14 A3018 RMK AO2 SLP220 T02000139
                 10217 20183 51023 =
2018-05-21 06:54 METAR KGED 211054Z AUTO 05008KT 10SM CLR 19/15 A3016 RMK AO2 SLP214 T01890150 =
2018-05-21 05:54 METAR KGED 210954Z AUTO 05006KT 10SM CLR 18/16 A3014 RMK AO2 SLP205 T01830156 =
2018-05-21 04:54 METAR KGED 210854Z AUTO 04006KT 10SM CLR 19/16 A3012 RMK AO2 SLP197 T01890161
                 51017 =
2018-05-21 03:54 METAR KGED 210754Z AUTO 05009KT 10SM CLR 20/17 A3010 RMK AO2 SLP192 T02000172 =
2018-05-21 02:54 METAR KGED 210654Z AUTO 04010KT 10SM CLR 21/18 A3008 RMK AO2 SLP186 T02110183 =

Support USWX by starting your Amazon purchase here.